Time;durP1;ratioP1;P1;durP2;ratioP2;P2;SDS_P1;SDS_P2;PMS_P1;PMS_P2;Temp;Humidity;BMP_temperature;BMP_pressure;BME280_temperature;BME280_humidity;BME280_pressure;Samples;Min_cycle;Max_cycle;Signal;HPM_P1;HPM_P2
2022/05/29 00:00:16;;;;;;;2.97;1.90;;;21.00;47.20;22.40;100896.00;;;;4991003;28;20222;-46
2022/05/29 00:02:42;;;;;;;3.23;2.00;;;21.00;47.20;22.30;100901.00;;;;4997211;28;20210;-46
2022/05/29 00:05:09;;;;;;;2.10;1.90;;;21.00;47.30;22.30;100904.00;;;;5005754;28;20177;-46
2022/05/29 00:07:34;;;;;;;3.23;2.10;;;21.00;47.20;22.30;100906.00;;;;5001923;28;20179;-47
2022/05/29 00:10:04;;;;;;;2.90;2.00;;;21.00;47.20;22.20;100897.00;;;;4991186;28;20206;-46
2022/05/29 00:12:29;;;;;;;3.30;2.17;;;21.00;47.20;22.20;100897.00;;;;4989611;28;20183;-47
2022/05/29 00:14:55;;;;;;;2.57;1.90;;;20.90;47.20;22.20;100898.00;;;;4990694;28;20186;-46
2022/05/29 00:17:21;;;;;;;2.40;2.00;;;20.90;47.20;22.20;100901.00;;;;4989952;28;20267;-46
2022/05/29 00:19:47;;;;;;;2.07;1.87;;;20.90;47.20;22.20;100900.00;;;;4990699;28;20192;-46
2022/05/29 00:22:19;;;;;;;2.27;2.03;;;20.80;47.10;22.10;100900.00;;;;4989222;28;20180;-45
2022/05/29 00:24:46;;;;;;;3.30;2.27;;;20.80;47.20;22.10;100899.00;;;;4989549;28;20229;-47
2022/05/29 00:27:12;;;;;;;3.40;1.83;;;20.80;47.20;22.10;100900.00;;;;4988969;28;20253;-46
2022/05/29 00:29:39;;;;;;;2.20;2.00;;;20.80;47.20;22.00;100897.00;;;;4990353;28;20180;-46
2022/05/29 00:32:05;;;;;;;2.33;1.90;;;20.80;47.30;22.00;100895.00;;;;4990686;28;20362;-48
2022/05/29 00:34:32;;;;;;;3.40;2.10;;;20.80;47.20;22.00;100898.00;;;;4989205;28;20182;-47
2022/05/29 00:37:00;;;;;;;2.10;1.80;;;20.80;47.30;22.00;100892.00;;;;4988878;28;20277;-47
2022/05/29 00:39:26;;;;;;;2.70;1.90;;;20.70;47.20;22.00;100880.00;;;;4988648;28;20203;-48
2022/05/29 00:41:52;;;;;;;2.20;2.00;;;20.70;47.20;22.00;100891.00;;;;4988920;28;20536;-47
2022/05/29 00:44:23;;;;;;;2.80;1.80;;;20.70;47.20;21.90;100883.00;;;;4990688;28;20168;-46
2022/05/29 00:46:57;;;;;;;2.73;1.80;;;20.70;47.20;21.90;100882.00;;;;4997590;28;20172;-46
2022/05/29 00:49:32;;;;;;;2.77;1.83;;;20.70;47.30;21.90;100880.00;;;;4991570;28;20669;-46
2022/05/29 00:52:16;;;;;;;2.33;1.87;;;20.70;47.30;21.90;100882.00;;;;4990815;28;20170;-48
2022/05/29 00:54:55;;;;;;;2.00;1.80;;;20.60;47.30;21.80;100864.00;;;;4989513;28;20182;-46
2022/05/29 00:57:33;;;;;;;2.20;1.77;;;20.60;47.30;21.80;100881.00;;;;4989304;28;20270;-48
2022/05/29 01:00:20;;;;;;;2.27;1.90;;;20.60;47.30;21.80;100871.00;;;;4988801;28;20197;-47
2022/05/29 01:02:46;;;;;;;1.70;1.60;;;20.60;47.40;21.70;100872.00;;;;4990048;28;20184;-46
2022/05/29 01:05:13;;;;;;;2.47;1.90;;;20.60;47.60;21.70;100886.00;;;;4989579;28;20532;-46
2022/05/29 01:07:39;;;;;;;2.43;1.90;;;20.50;47.50;21.70;100871.00;;;;4989503;28;20715;-47
2022/05/29 01:10:05;;;;;;;2.10;1.80;;;20.50;47.50;21.70;100866.00;;;;4971974;28;20272;-46
2022/05/29 01:12:49;;;;;;;2.63;1.70;;;20.50;47.50;21.70;100866.00;;;;4988350;28;20187;-46
2022/05/29 01:15:51;;;;;;;3.07;1.80;;;20.50;47.60;21.70;100856.00;;;;4989821;28;20175;-47
2022/05/29 01:18:57;;;;;;;2.07;1.80;;;20.50;47.60;21.60;100855.00;;;;4989245;28;20165;-46
2022/05/29 01:21:52;;;;;;;1.90;1.77;;;20.40;47.50;21.60;100848.00;;;;4988886;28;20205;-47
2022/05/29 01:25:05;;;;;;;2.40;1.93;;;20.40;47.60;21.60;100859.00;;;;4988616;28;20196;-47
2022/05/29 01:28:06;;;;;;;2.40;1.90;;;20.40;47.60;21.50;100857.00;;;;4988085;28;20161;-47
2022/05/29 01:30:38;;;;;;;3.73;1.87;;;20.40;47.60;21.50;100862.00;;;;4987991;28;20203;-47
2022/05/29 01:33:12;;;;;;;3.43;1.80;;;20.40;48.00;21.50;100859.00;;;;4987593;28;20213;-46
2022/05/29 01:35:55;;;;;;;2.50;1.90;;;20.40;48.10;21.50;100854.00;;;;4987877;28;20324;-47
2022/05/29 01:38:38;;;;;;;2.80;1.80;;;20.30;47.80;21.50;100852.00;;;;4987546;28;20215;-46
2022/05/29 01:41:08;;;;;;;2.70;2.00;;;20.30;47.90;21.50;100855.00;;;;4987955;28;20194;-47
2022/05/29 01:43:40;;;;;;;3.43;1.83;;;20.30;47.80;21.40;100857.00;;;;4987640;28;20177;-46
2022/05/29 01:46:17;;;;;;;2.23;1.90;;;20.30;47.80;21.40;100861.00;;;;4987654;28;20182;-46
2022/05/29 01:48:55;;;;;;;3.43;1.90;;;20.30;47.80;21.40;100855.00;;;;4988343;28;20206;-46
2022/05/29 01:51:23;;;;;;;2.23;1.87;;;20.20;47.80;21.40;100844.00;;;;4987679;28;20223;-45
2022/05/29 01:54:12;;;;;;;2.70;1.80;;;20.20;47.80;21.40;100858.00;;;;4987357;28;20209;-46
2022/05/29 01:56:49;;;;;;;2.13;1.80;;;20.20;47.80;21.40;100854.00;;;;4987388;28;20201;-47
2022/05/29 01:59:23;;;;;;;2.57;1.80;;;20.20;47.80;21.30;100846.00;;;;4986995;28;20259;-47
2022/05/29 02:01:54;;;;;;;2.10;1.90;;;20.20;47.80;21.30;100837.00;;;;4987124;28;20198;-48
2022/05/29 02:04:22;;;;;;;2.10;1.90;;;20.10;47.80;21.30;100829.00;;;;4988252;28;20168;-47
2022/05/29 02:09:40;;;;;;;2.10;1.90;;;20.10;47.80;21.30;100832.00;;;;4987303;28;20179;-47
2022/05/29 02:12:09;;;;;;;2.00;1.80;;;20.00;47.70;21.30;100828.00;;;;4987138;28;20171;-47
2022/05/29 02:14:37;;;;;;;2.70;1.70;;;20.10;47.80;21.20;100825.00;;;;4987091;28;20641;-47
2022/05/29 02:17:09;;;;;;;3.07;1.63;;;20.00;47.70;21.20;100838.00;;;;4987062;28;20607;-47
2022/05/29 02:19:40;;;;;;;2.80;1.87;;;20.00;47.70;21.20;100834.00;;;;4987051;28;20177;-46
2022/05/29 02:22:21;;;;;;;1.80;1.70;;;20.00;47.70;21.20;100833.00;;;;4988498;28;20563;-46
2022/05/29 02:24:50;;;;;;;2.00;1.80;;;20.00;47.80;21.20;100832.00;;;;4987806;28;20157;-48
2022/05/29 02:27:55;;;;;;;3.57;1.97;;;20.00;48.00;21.20;100828.00;;;;4986854;28;20185;-46
2022/05/29 02:30:23;;;;;;;2.93;1.80;;;19.90;47.90;21.10;100822.00;;;;4987867;28;20216;-48
2022/05/29 02:32:54;;;;;;;4.00;1.90;;;19.90;47.90;21.10;100812.00;;;;4987117;28;20176;-47
2022/05/29 02:35:45;;;;;;;2.57;1.90;;;19.90;47.90;21.10;100817.00;;;;4987006;28;20539;-47
2022/05/29 02:38:20;;;;;;;2.80;1.80;;;19.90;47.90;21.10;100815.00;;;;4986463;28;20196;-47
2022/05/29 02:40:58;;;;;;;2.00;1.77;;;19.90;47.90;21.10;100808.00;;;;4986823;28;20722;-46
2022/05/29 02:43:53;;;;;;;2.20;2.00;;;19.90;48.00;21.10;100812.00;;;;4986785;28;20168;-46
2022/05/29 02:46:42;;;;;;;2.87;2.17;;;19.90;48.10;21.00;100811.00;;;;4986332;28;20176;-48
2022/05/29 02:49:30;;;;;;;2.60;1.80;;;19.80;48.00;21.00;100813.00;;;;4986801;28;20184;-46
2022/05/29 02:52:04;;;;;;;2.53;1.80;;;19.80;48.10;21.00;100814.00;;;;4986600;28;20264;-47
2022/05/29 02:54:31;;;;;;;2.20;2.00;;;19.80;48.00;20.90;100811.00;;;;4987465;28;20160;-46
2022/05/29 02:56:58;;;;;;;2.10;1.90;;;19.80;48.00;20.90;100810.00;;;;4989978;28;20227;-46
2022/05/29 02:59:30;;;;;;;2.20;1.60;;;19.80;48.00;21.00;100802.00;;;;4988840;28;20634;-47
2022/05/29 03:02:26;;;;;;;2.00;1.80;;;19.80;48.00;20.90;100805.00;;;;4996424;28;20703;-48
2022/05/29 03:05:22;;;;;;;2.03;1.70;;;19.80;48.00;20.90;100809.00;;;;4998022;28;20255;-46
2022/05/29 03:08:12;;;;;;;2.07;1.87;;;19.80;48.10;20.90;100800.00;;;;4987827;28;20170;-48
2022/05/29 03:10:40;;;;;;;2.00;1.60;;;19.70;48.00;20.90;100796.00;;;;4989199;28;20287;-46
2022/05/29 03:13:47;;;;;;;2.07;1.73;;;19.70;48.00;20.90;100805.00;;;;4987261;28;20180;-48
2022/05/29 03:16:43;;;;;;;2.10;1.90;;;19.70;48.70;20.80;100794.00;;;;4986715;28;20211;-45
2022/05/29 03:19:35;;;;;;;2.37;1.90;;;19.70;48.10;20.80;100793.00;;;;4999957;28;20157;-45
2022/05/29 03:22:25;;;;;;;2.47;1.90;;;19.70;48.10;20.80;100801.00;;;;5000646;28;20188;-46
2022/05/29 03:25:02;;;;;;;1.87;1.70;;;19.60;48.00;20.70;100802.00;;;;4988618;28;20332;-46
2022/05/29 03:27:47;;;;;;;3.87;1.90;;;19.60;48.00;20.70;100801.00;;;;4986886;28;20223;-47
2022/05/29 03:30:20;;;;;;;2.60;1.70;;;19.60;48.20;20.70;100798.00;;;;4987606;28;20661;-47
2022/05/29 03:32:49;;;;;;;3.17;1.90;;;19.60;48.30;20.60;100798.00;;;;4970308;28;20296;-46
2022/05/29 03:35:26;;;;;;;2.90;1.80;;;19.50;48.40;20.70;100802.00;;;;4987381;28;20623;-47
2022/05/29 03:37:53;;;;;;;2.53;1.87;;;19.60;48.30;20.70;100805.00;;;;4987237;28;20188;-47
2022/05/29 03:40:18;;;;;;;4.23;2.00;;;19.60;48.40;20.70;100791.00;;;;4987512;28;20716;-47
2022/05/29 03:42:44;;;;;;;2.50;2.10;;;19.50;48.50;20.70;100811.00;;;;4987229;28;20259;-46
2022/05/29 03:45:10;;;;;;;2.73;1.90;;;19.50;48.50;20.60;100796.00;;;;4987404;28;20180;-45
2022/05/29 03:47:37;;;;;;;5.03;2.00;;;19.50;48.50;20.60;100799.00;;;;4986222;28;20200;-46
2022/05/29 03:50:04;;;;;;;2.00;1.80;;;19.50;48.50;20.60;100793.00;;;;4987834;28;20200;-46
2022/05/29 03:52:31;;;;;;;3.90;1.90;;;19.50;48.60;20.60;100797.00;;;;4986356;28;20263;-46
2022/05/29 03:54:58;;;;;;;2.33;1.70;;;19.50;48.50;20.60;100802.00;;;;4987421;28;20187;-46
2022/05/29 03:57:23;;;;;;;2.10;1.70;;;19.40;48.50;20.60;100798.00;;;;4979423;28;20294;-46
2022/05/29 03:59:49;;;;;;;2.00;1.80;;;19.40;48.50;20.60;100793.00;;;;4971035;28;20534;-47
2022/05/29 04:02:15;;;;;;;2.73;2.00;;;19.50;48.50;20.60;100799.00;;;;4971029;28;20188;-47
2022/05/29 04:04:41;;;;;;;1.80;1.60;;;19.40;48.50;20.60;100799.00;;;;4971374;28;20165;-47
2022/05/29 04:07:07;;;;;;;2.10;1.90;;;19.50;48.50;20.60;100789.00;;;;4971605;28;20204;-47
2022/05/29 04:12:17;;;;;;;2.00;1.80;;;19.40;48.30;20.50;100785.00;;;;4971322;28;20686;-46
2022/05/29 04:14:43;;;;;;;3.47;1.90;;;19.40;48.40;20.50;100788.00;;;;4969769;28;20173;-46
2022/05/29 04:17:15;;;;;;;2.07;1.70;;;19.40;48.50;20.50;100790.00;;;;4969980;28;20215;-46
2022/05/29 04:19:41;;;;;;;2.17;1.80;;;19.40;48.50;20.50;100770.00;;;;4971105;28;20188;-47
2022/05/29 04:22:08;;;;;;;1.70;1.60;;;19.40;48.50;20.50;100774.00;;;;4970685;28;20507;-48
2022/05/29 04:24:34;;;;;;;2.70;1.80;;;19.40;48.60;20.50;100780.00;;;;4970889;28;20173;-46
2022/05/29 04:27:00;;;;;;;3.77;1.80;;;19.30;48.50;20.50;100768.00;;;;4969943;28;20180;-45
2022/05/29 04:29:25;;;;;;;2.57;1.80;;;19.40;48.70;20.50;100773.00;;;;4970101;28;20635;-45
2022/05/29 04:34:36;;;;;;;4.60;1.90;;;19.30;48.70;20.40;100761.00;;;;4971240;28;20176;-46
2022/05/29 04:37:02;;;;;;;7.30;2.03;;;19.30;48.70;20.40;100766.00;;;;4970884;28;20280;-46
2022/05/29 04:39:28;;;;;;;5.57;2.30;;;19.30;48.80;20.10;100768.00;;;;4970518;28;20320;-47
2022/05/29 04:41:53;;;;;;;6.77;2.27;;;19.30;48.80;20.40;100767.00;;;;4971218;28;20545;-46
2022/05/29 04:44:19;;;;;;;8.10;2.30;;;19.30;48.90;20.40;100753.00;;;;4971021;28;20191;-44
2022/05/29 04:46:45;;;;;;;7.23;2.20;;;19.30;48.90;20.40;100767.00;;;;4970457;28;20397;-45
2022/05/29 04:49:10;;;;;;;5.70;2.37;;;19.30;48.90;20.40;100764.00;;;;4970258;28;20200;-46
2022/05/29 04:51:36;;;;;;;12.33;2.77;;;19.30;49.00;20.40;100750.00;;;;4969775;28;20193;-47
2022/05/29 04:54:02;;;;;;;7.00;2.30;;;19.30;49.10;20.40;100768.00;;;;4970171;28;20165;-46
2022/05/29 04:56:27;;;;;;;6.97;2.30;;;19.30;49.20;20.40;100759.00;;;;4970076;28;20564;-46
2022/05/29 04:58:53;;;;;;;12.23;2.70;;;19.30;49.20;20.40;100760.00;;;;4970446;28;20208;-46
2022/05/29 05:01:19;;;;;;;8.43;2.47;;;19.30;49.30;20.30;100751.00;;;;4970172;28;20936;-46
2022/05/29 05:03:45;;;;;;;6.27;2.40;;;19.20;49.20;20.30;100749.00;;;;4970911;28;20169;-46
2022/05/29 05:06:10;;;;;;;6.57;2.30;;;19.20;49.30;20.30;100755.00;;;;4982292;28;20173;-48
2022/05/29 05:08:36;;;;;;;5.30;2.10;;;19.20;49.50;20.30;100744.00;;;;4972368;28;20232;-47
2022/05/29 05:11:02;;;;;;;6.33;2.43;;;19.20;49.60;20.30;100751.00;;;;4970562;28;20211;-45
2022/05/29 05:13:27;;;;;;;6.90;2.03;;;19.20;49.60;20.30;100751.00;;;;4970570;28;20180;-48
2022/05/29 05:16:04;;;;;;;5.57;2.50;;;19.20;49.50;20.30;100755.00;;;;4970491;28;20201;-47
2022/05/29 05:18:30;;;;;;;5.60;2.50;;;19.20;49.60;20.30;100754.00;;;;4970111;28;20236;-45
2022/05/29 05:20:55;;;;;;;5.23;2.23;;;19.10;49.50;20.30;100753.00;;;;4969873;28;20291;-45
2022/05/29 05:23:21;;;;;;;3.67;2.00;;;19.10;49.50;20.30;100743.00;;;;4974206;28;20181;-46
2022/05/29 05:25:47;;;;;;;5.17;2.10;;;19.10;49.50;20.20;100750.00;;;;4987319;28;20666;-47
2022/05/29 05:28:13;;;;;;;3.40;2.27;;;19.10;49.50;20.30;100747.00;;;;4989115;28;20179;-47
2022/05/29 05:30:39;;;;;;;5.30;2.13;;;19.10;49.50;20.30;100739.00;;;;4989422;28;20279;-46
2022/05/29 05:33:04;;;;;;;3.80;1.90;;;19.10;49.50;20.20;100738.00;;;;4988962;28;20176;-47
2022/05/29 05:35:30;;;;;;;4.83;2.13;;;19.10;49.50;20.20;100739.00;;;;4989030;28;20634;-47
2022/05/29 05:37:56;;;;;;;3.53;2.03;;;19.10;49.50;20.20;100748.00;;;;4988748;28;20176;-47
2022/05/29 05:40:22;;;;;;;4.03;2.07;;;19.10;49.80;20.20;100736.00;;;;4989191;28;20201;-47
2022/05/29 05:42:48;;;;;;;2.50;2.00;;;19.10;49.60;20.20;100740.00;;;;4988812;28;20217;-47
2022/05/29 05:45:14;;;;;;;2.87;1.93;;;19.10;49.50;20.20;100742.00;;;;4989102;28;20172;-46
2022/05/29 05:47:39;;;;;;;3.87;1.70;;;19.10;49.60;20.20;100741.00;;;;4988903;28;20649;-46
2022/05/29 05:50:06;;;;;;;3.03;1.80;;;19.00;49.60;20.20;100737.00;;;;4988741;28;20204;-47
2022/05/29 05:52:32;;;;;;;3.53;2.00;;;19.00;49.70;20.20;100733.00;;;;4987771;28;20235;-47
2022/05/29 05:54:57;;;;;;;2.13;1.80;;;19.00;49.70;20.20;100736.00;;;;4988926;28;20172;-47
2022/05/29 05:57:23;;;;;;;3.43;2.00;;;19.00;49.70;20.20;100734.00;;;;4988305;28;20930;-46
2022/05/29 05:59:49;;;;;;;3.23;1.80;;;19.00;49.80;20.20;100734.00;;;;4961219;28;20216;-45
2022/05/29 06:02:15;;;;;;;3.57;1.90;;;19.00;49.70;20.10;100731.00;;;;4958810;28;20172;-46
2022/05/29 06:04:42;;;;;;;3.93;2.00;;;19.00;49.80;20.10;100732.00;;;;4990907;28;20682;-48
2022/05/29 06:07:09;;;;;;;3.07;1.87;;;19.00;49.90;20.10;100742.00;;;;4988566;28;20239;-47
2022/05/29 06:09:34;;;;;;;3.47;2.00;;;19.00;49.90;20.10;100742.00;;;;4988553;28;20180;-47
2022/05/29 06:12:02;;;;;;;2.30;1.70;;;18.90;49.80;20.10;100750.00;;;;4988138;28;20177;-47
2022/05/29 06:14:29;;;;;;;2.73;1.80;;;18.90;49.80;20.10;100737.00;;;;4987729;28;20798;-46
2022/05/29 06:16:54;;;;;;;2.47;2.00;;;18.90;49.80;20.10;100742.00;;;;4988945;28;20470;-46
2022/05/29 06:19:20;;;;;;;2.17;1.63;;;18.90;49.90;20.10;100748.00;;;;4988366;28;20179;-45
2022/05/29 06:21:46;;;;;;;2.43;1.80;;;18.90;49.90;20.10;100747.00;;;;4987870;28;20207;-46
2022/05/29 06:24:11;;;;;;;3.00;1.90;;;18.90;50.10;20.10;100742.00;;;;4988262;28;20176;-47
2022/05/29 06:26:37;;;;;;;2.23;1.77;;;18.90;50.00;20.10;100740.00;;;;4988357;28;20284;-46
2022/05/29 06:29:03;;;;;;;1.90;1.70;;;18.90;50.00;20.10;100748.00;;;;4987822;28;20168;-47
2022/05/29 06:31:28;;;;;;;3.23;1.90;;;18.90;50.10;20.10;100749.00;;;;4988861;28;20195;-46
2022/05/29 06:33:55;;;;;;;2.93;1.80;;;18.90;50.10;20.00;100757.00;;;;4992528;28;20776;-46
2022/05/29 06:36:23;;;;;;;2.00;1.63;;;18.90;50.10;20.00;100738.00;;;;4993959;28;20195;-46
2022/05/29 06:38:49;;;;;;;1.90;1.70;;;18.90;50.10;20.00;100740.00;;;;4989672;28;20171;-47
2022/05/29 06:41:17;;;;;;;2.57;1.70;;;18.90;50.10;20.00;100745.00;;;;4987951;28;20193;-46
2022/05/29 06:43:42;;;;;;;2.07;1.80;;;18.90;50.20;20.00;100746.00;;;;4987832;28;20161;-46
2022/05/29 06:46:09;;;;;;;2.23;1.70;;;18.90;50.30;20.00;100749.00;;;;4988088;28;20165;-44
2022/05/29 06:48:35;;;;;;;3.93;1.90;;;18.90;50.30;20.00;100750.00;;;;4987796;28;20246;-46
2022/05/29 06:51:12;;;;;;;2.60;1.80;;;18.80;50.30;20.00;100751.00;;;;4987522;28;20200;-46
2022/05/29 06:53:38;;;;;;;4.10;1.67;;;18.90;50.40;20.00;100747.00;;;;4987619;28;20152;-48
2022/05/29 06:56:05;;;;;;;2.63;1.87;;;18.80;50.30;20.00;100734.00;;;;4986428;28;20727;-47
2022/05/29 06:58:30;;;;;;;2.03;1.53;;;18.80;50.30;20.00;100744.00;;;;4986485;28;20156;-45
2022/05/29 07:09:17;;;;;;;2.50;1.80;;;18.80;50.30;19.90;100732.00;;;;4987604;28;20181;-45
2022/05/29 07:11:43;;;;;;;2.07;1.43;;;18.80;50.40;19.90;100730.00;;;;4987977;28;20246;-47
2022/05/29 07:14:09;;;;;;;1.60;1.50;;;18.80;50.40;19.90;100727.00;;;;4994918;28;20176;-45
2022/05/29 07:16:35;;;;;;;1.53;1.43;;;18.70;50.40;19.90;100721.00;;;;5005267;28;20227;-46
2022/05/29 07:19:01;;;;;;;1.87;1.73;;;18.70;50.50;19.90;100733.00;;;;4997629;28;20596;-46
2022/05/29 07:21:28;;;;;;;1.50;1.40;;;18.70;50.40;19.90;100734.00;;;;4996481;28;20218;-46
2022/05/29 07:23:54;;;;;;;1.70;1.60;;;18.70;50.50;19.90;100733.00;;;;4989771;28;20207;-47
2022/05/29 07:26:20;;;;;;;1.57;1.47;;;18.70;50.50;19.90;100737.00;;;;4989865;28;20624;-47
2022/05/29 07:28:45;;;;;;;3.23;1.80;;;18.70;50.50;19.90;100739.00;;;;4989845;28;20194;-46
2022/05/29 07:31:11;;;;;;;2.37;1.77;;;18.70;50.60;19.90;100740.00;;;;4987268;28;20315;-46
2022/05/29 07:33:38;;;;;;;2.90;1.90;;;18.70;50.70;19.90;100735.00;;;;4991996;28;20176;-46
2022/05/29 07:36:08;;;;;;;2.03;1.80;;;18.70;50.90;19.90;100740.00;;;;4991698;28;20298;-46
2022/05/29 07:38:34;;;;;;;1.50;1.40;;;18.70;50.90;19.90;100735.00;;;;4992081;28;20175;-46
2022/05/29 07:40:59;;;;;;;2.77;1.70;;;18.70;50.90;19.90;100741.00;;;;4991392;28;20239;-48
2022/05/29 07:43:26;;;;;;;1.70;1.60;;;18.70;51.00;19.90;100724.00;;;;4914020;28;20191;-45
2022/05/29 07:45:57;;;;;;;2.17;1.60;;;18.70;51.10;19.90;100730.00;;;;4992488;28;20190;-48
2022/05/29 07:48:25;;;;;;;2.67;1.70;;;18.70;51.10;19.90;100730.00;;;;4992103;28;20268;-47
2022/05/29 07:50:51;;;;;;;2.03;1.60;;;18.70;51.10;19.90;100724.00;;;;4992333;28;20777;-46
2022/05/29 07:53:17;;;;;;;2.07;1.57;;;18.70;51.20;19.90;100735.00;;;;4992649;28;20234;-47
2022/05/29 07:55:43;;;;;;;2.83;1.63;;;18.70;51.20;19.90;100730.00;;;;4993740;28;20177;-47
2022/05/29 07:58:09;;;;;;;2.60;1.90;;;18.70;51.30;19.90;100730.00;;;;4993083;28;20189;-46
2022/05/29 08:00:35;;;;;;;1.80;1.70;;;18.60;51.20;19.90;100739.00;;;;4992468;28;20278;-46
2022/05/29 08:03:01;;;;;;;1.70;1.50;;;18.60;51.20;19.90;100729.00;;;;4992448;28;20172;-46
2022/05/29 08:05:27;;;;;;;2.00;1.60;;;18.60;51.30;19.80;100731.00;;;;4992199;28;20238;-47
2022/05/29 08:07:53;;;;;;;2.30;1.63;;;18.70;51.40;19.80;100730.00;;;;4991903;28;20172;-46
2022/05/29 08:10:21;;;;;;;2.33;1.70;;;18.60;51.40;19.80;100727.00;;;;4991889;28;20196;-46
2022/05/29 08:12:47;;;;;;;4.67;1.80;;;18.70;51.50;19.80;100732.00;;;;4991892;28;20781;-46
2022/05/29 08:15:13;;;;;;;3.97;1.70;;;18.70;51.80;19.80;100719.00;;;;4991898;28;20212;-47
2022/05/29 08:17:39;;;;;;;2.53;1.70;;;18.60;52.30;19.80;100724.00;;;;4991987;28;20304;-46
2022/05/29 08:20:05;;;;;;;2.67;1.80;;;18.60;52.60;19.80;100716.00;;;;4991889;28;20203;-46
2022/05/29 08:22:31;;;;;;;3.57;1.70;;;18.60;53.10;19.80;100724.00;;;;4991024;28;20239;-47
2022/05/29 08:30:38;;;;;;;4.40;1.90;;;18.60;53.40;19.80;100712.00;;;;4991309;28;20276;-46
2022/05/29 08:33:06;;;;;;;6.60;1.90;;;18.60;53.10;19.80;100709.00;;;;4989860;28;20231;-46
2022/05/29 08:35:32;;;;;;;4.00;1.70;;;18.60;52.80;19.80;100716.00;;;;4990364;28;20180;-45
2022/05/29 08:37:59;;;;;;;2.83;1.70;;;18.60;53.40;19.80;100711.00;;;;4999055;28;20225;-48
2022/05/29 08:40:26;;;;;;;3.37;1.80;;;18.60;52.80;19.80;100707.00;;;;4980647;28;20673;-46
2022/05/29 08:42:52;;;;;;;2.07;1.57;;;18.60;52.80;19.80;100692.00;;;;4902157;28;20183;-46
2022/05/29 08:45:18;;;;;;;3.47;1.80;;;18.60;52.80;19.80;100704.00;;;;4974212;28;20519;-46
2022/05/29 08:47:45;;;;;;;4.33;1.60;;;18.60;52.90;19.80;100692.00;;;;4990162;28;20211;-45
2022/05/29 08:50:19;;;;;;;1.97;1.77;;;18.60;53.40;19.80;100684.00;;;;4990406;28;20585;-46
2022/05/29 08:53:02;;;;;;;2.37;1.70;;;18.60;53.40;19.80;100690.00;;;;4975143;28;20254;-46
2022/05/29 08:55:45;;;;;;;5.13;1.67;;;18.50;53.60;19.80;100702.00;;;;4989979;28;20682;-46
2022/05/29 08:58:18;;;;;;;3.97;1.90;;;18.60;53.90;19.80;100694.00;;;;4989922;28;20171;-46
2022/05/29 09:00:59;;;;;;;3.03;1.83;;;18.60;54.00;19.80;100700.00;;;;4991043;28;20278;-46
2022/05/29 09:03:48;;;;;;;4.03;2.03;;;18.60;54.80;19.80;100708.00;;;;4990968;28;20546;-45
2022/05/29 09:06:23;;;;;;;3.67;1.80;;;18.60;54.90;19.80;100681.00;;;;4990651;28;20163;-45
2022/05/29 09:08:57;;;;;;;1.60;1.47;;;18.60;55.10;19.80;100702.00;;;;4974087;28;20535;-45
2022/05/29 09:11:29;;;;;;;2.33;1.80;;;18.60;55.10;19.80;100695.00;;;;4974237;28;20578;-46
2022/05/29 09:14:11;;;;;;;3.83;1.90;;;18.60;54.80;19.80;100692.00;;;;4973735;28;20589;-45
2022/05/29 09:16:43;;;;;;;4.17;2.03;;;18.60;55.20;19.80;100681.00;;;;4990603;28;20244;-45
2022/05/29 09:19:36;;;;;;;3.53;2.00;;;18.60;56.00;19.80;100683.00;;;;4974168;28;20875;-45
2022/05/29 09:22:28;;;;;;;3.73;2.00;;;18.60;56.00;19.80;100678.00;;;;4989364;28;20184;-46
2022/05/29 09:25:13;;;;;;;5.40;2.03;;;18.60;56.90;19.80;100678.00;;;;4993023;28;20226;-46
2022/05/29 09:27:44;;;;;;;6.43;2.10;;;18.60;57.30;19.80;100677.00;;;;4992125;28;20155;-46
2022/05/29 09:30:10;;;;;;;11.63;2.20;;;18.60;57.50;19.80;100681.00;;;;4989641;28;20704;-46
2022/05/29 09:32:59;;;;;;;10.00;2.33;;;18.60;57.70;19.80;100675.00;;;;4991103;28;20191;-47
2022/05/29 09:35:39;;;;;;;8.23;2.10;;;18.70;57.50;19.80;100684.00;;;;4989109;28;20187;-46
2022/05/29 09:38:22;;;;;;;6.93;2.13;;;18.60;56.80;19.80;100671.00;;;;4971809;28;20210;-46
2022/05/29 09:41:05;;;;;;;6.97;2.47;;;18.70;56.60;19.80;100667.00;;;;4970157;28;20191;-46
2022/05/29 09:43:31;;;;;;;6.03;2.30;;;18.70;56.40;19.90;100681.00;;;;4916631;28;20163;-46
2022/05/29 09:46:19;;;;;;;5.63;2.27;;;18.70;56.30;19.90;100673.00;;;;4988648;28;20191;-45
2022/05/29 09:51:44;;;;;;;13.23;2.37;;;18.60;55.90;19.80;100670.00;;;;4991381;28;20202;-46
2022/05/29 09:54:37;;;;;;;9.40;2.50;;;18.60;56.30;19.80;100671.00;;;;4977972;28;20809;-47
2022/05/29 09:57:25;;;;;;;9.93;2.40;;;18.60;56.10;19.80;100665.00;;;;4993457;28;20235;-44
2022/05/29 10:00:02;;;;;;;15.33;2.93;;;18.60;55.90;19.80;100667.00;;;;4974696;28;20715;-46
2022/05/29 10:02:31;;;;;;;9.67;2.50;;;18.60;56.20;19.80;100673.00;;;;4990115;28;20164;-45
2022/05/29 10:05:00;;;;;;;8.80;2.50;;;18.70;56.10;19.90;100665.00;;;;4988921;28;20575;-46
2022/05/29 10:07:40;;;;;;;6.20;2.50;;;18.70;56.10;19.90;100612.00;;;;4988450;28;20182;-45
2022/05/29 10:10:09;;;;;;;5.80;2.50;;;18.60;56.00;19.90;100672.00;;;;4988335;28;20210;-46
2022/05/29 10:12:47;;;;;;;7.10;2.53;;;18.60;56.00;19.80;100659.00;;;;4989796;28;20184;-46
2022/05/29 10:15:25;;;;;;;5.70;2.50;;;18.60;56.00;19.90;100673.00;;;;4989635;28;20187;-46
2022/05/29 10:17:56;;;;;;;7.47;2.20;;;18.60;55.70;19.90;100674.00;;;;4989799;28;20447;-46
2022/05/29 10:20:30;;;;;;;5.70;2.40;;;18.60;55.60;19.90;100669.00;;;;4989803;28;20199;-47
2022/05/29 10:22:57;;;;;;;4.73;2.13;;;18.60;55.60;19.90;100669.00;;;;4990398;28;20176;-47
2022/05/29 10:25:28;;;;;;;3.73;2.40;;;18.60;55.60;19.90;100664.00;;;;4988529;28;20180;-46
2022/05/29 10:27:57;;;;;;;5.43;2.23;;;18.60;55.60;19.90;100668.00;;;;4972341;28;20243;-47
2022/05/29 10:30:56;;;;;;;5.40;2.37;;;18.60;55.50;19.90;100657.00;;;;4988294;28;20200;-45
2022/05/29 10:33:27;;;;;;;9.63;2.30;;;18.60;55.90;19.90;100654.00;;;;4989795;28;20168;-45
2022/05/29 10:36:14;;;;;;;5.90;2.40;;;18.60;57.00;19.90;100654.00;;;;4988089;28;20250;-46
2022/05/29 10:38:40;;;;;;;8.87;2.70;;;18.70;56.90;19.90;100641.00;;;;4972618;28;20186;-46
2022/05/29 10:41:07;;;;;;;5.37;2.50;;;18.60;56.90;19.90;100643.00;;;;4984702;28;20201;-47
2022/05/29 10:43:46;;;;;;;5.10;2.30;;;18.60;56.80;19.90;100646.00;;;;4890181;28;20183;-48
2022/05/29 10:46:18;;;;;;;4.40;2.40;;;18.60;56.40;19.90;100637.00;;;;4989322;28;20161;-46
2022/05/29 10:49:27;;;;;;;3.33;2.17;;;18.60;56.50;19.90;100654.00;;;;4989087;28;20160;-46
2022/05/29 10:52:14;;;;;;;5.93;2.40;;;18.60;56.50;19.90;100646.00;;;;4988734;28;20226;-46
2022/05/29 10:55:18;;;;;;;3.63;2.10;;;18.70;56.30;19.90;100650.00;;;;4989155;28;20208;-46
2022/05/29 10:58:08;;;;;;;3.50;2.17;;;18.70;56.00;19.90;100653.00;;;;4988602;28;20668;-46
2022/05/29 11:03:17;;;;;;;3.00;1.90;;;18.70;56.00;19.90;100649.00;;;;4989188;28;20605;-47
2022/05/29 11:04:26;;;;;;;3.67;2.07;;;18.70;56.70;19.60;100669.00;;;;5000278;28;20234;-46
2022/05/29 11:07:41;;;;;;;6.67;2.30;;;18.70;57.80;19.90;100669.00;;;;4989335;28;20184;-47
2022/05/29 11:11:02;;;;;;;7.93;2.93;;;18.70;58.20;19.90;100678.00;;;;4991957;28;20553;-47
2022/05/29 11:13:38;;;;;;;9.07;2.67;;;18.80;58.30;19.90;100672.00;;;;4983468;28;20188;-46
2022/05/29 11:16:32;;;;;;;6.50;2.70;;;18.80;58.00;19.90;100663.00;;;;4991579;28;20820;-46
2022/05/29 11:19:35;;;;;;;4.57;2.50;;;18.70;57.90;19.90;100657.00;;;;4991819;28;20328;-47
2022/05/29 11:22:28;;;;;;;5.00;2.60;;;18.70;57.80;19.90;100658.00;;;;4992990;28;20195;-47
2022/05/29 11:25:25;;;;;;;6.23;2.20;;;18.70;57.80;19.90;100643.00;;;;4993139;28;20188;-46
2022/05/29 11:27:59;;;;;;;6.97;2.27;;;18.70;57.50;19.90;100650.00;;;;4979082;28;20243;-46
2022/05/29 11:30:30;;;;;;;5.27;2.33;;;18.70;57.50;19.90;100644.00;;;;5000700;28;20199;-46
2022/05/29 11:33:16;;;;;;;7.20;2.20;;;18.70;57.30;19.90;100643.00;;;;5000849;28;20233;-45
2022/05/29 11:36:09;;;;;;;8.83;2.53;;;18.70;57.20;19.90;100636.00;;;;4992763;28;20649;-45
2022/05/29 11:39:11;;;;;;;8.83;2.50;;;18.70;57.30;19.90;100644.00;;;;4992210;28;20176;-45